Tacoma, WA

12:59 AM PST on December 14, 2017 (GMT -0800)
McChord Air Force Base

Weather History for KTCM - November, 2011

Change the Weather History Date:

Monday, November 21, 2011

  Actual Average Record
Temperature  
Mean Temperature 40 °F -  
Max Temperature 48 °F 47 °F 60 °F (2002)
Min Temperature 31 °F 34 °F 18 °F (1978)
Degree Days  
Heating Degree Days 26    
Moisture  
Dew Point 41 °F    
Average Humidity 89    
Maximum Humidity 100    
Minimum Humidity 79    
Precipitation  
Precipitation 0.24 in - - ()
Sea Level Pressure  
Sea Level Pressure 29.69 in    
Wind  
Wind Speed 9 mph (South)    
Max Wind Speed 20 mph    
Max Gust Speed 25 mph    
Visibility 9 miles    
Events Rain    
Averages and records for this station are not official NWS values.
T = Trace of Precipitation, MM = Missing Value Source: NWS Daily Summary

Daily Weather History Graph

Daily Weather History Graph

Search for Another Location

Airport or City:

Trip Planner

Search our weather history database for the weather conditions in past years. The results will help you decide how hot, cold, wet, or windy it might be!

Date:

Astronomy

Nov. 21, 2011 Rise Set
Actual Time 7:22 AM PST 4:29 PM PST
Civil Twilight 6:48 AM PST 5:02 PM PST
Nautical Twilight 6:10 AM PST 5:40 PM PST
Astronomical Twilight 5:34 AM PST 6:16 PM PST
Moon 2:53 AM PST (11/21) 2:05 PM PST (11/21)
Length of Visible Light 10h 14m
Length of Day
9h 06m
Waning Crescent, 16% of the Moon is Illuminated
Nov 21
Waning Crescent
Nov 24
New
Dec 2
First Quarter
Dec 10
Full
Dec 17
Last Quarter

Hourly Weather History & Observations

Time (PST) Temp. Windchill Dew Point Humidity Pressure Visibility Wind Dir Wind Speed Gust Speed Precip Events Conditions
12:55 AM 31.8 °F 28.5 °F 30.9 °F 96% 29.81 in 10.0 mi SE 3.5 mph - N/A   Clear
1:55 AM 32.0 °F 28.7 °F 31.3 °F 97% 29.78 in 10.0 mi East 3.5 mph - N/A   Mostly Cloudy
4:14 AM 32.0 °F - 32.0 °F 100% 29.71 in 10.0 mi Calm Calm - N/A Rain Light Rain
4:55 AM 33.4 °F 30.4 °F 32.7 °F 97% 29.68 in 6.0 mi SE 3.5 mph - 0.01 in Rain Light Rain
5:50 AM 41.0 °F 34.7 °F 37.4 °F 87% 29.63 in 10.0 mi SSE 10.4 mph - N/A   Mostly Cloudy
5:55 AM 40.8 °F 33.7 °F 38.1 °F 90% 29.63 in 10.0 mi SSE 12.7 mph - 0.02 in   Mostly Cloudy
6:06 AM 41.0 °F 35.2 °F 39.2 °F 93% 29.63 in 10.0 mi SSE 9.2 mph - N/A Rain Light Rain
6:52 AM 41.0 °F 36.4 °F 39.2 °F 93% 29.70 in 4.0 mi WSW 6.9 mph - N/A Rain Rain
6:55 AM 40.8 °F 36.9 °F 39.2 °F 94% 29.69 in 4.0 mi SW 5.8 mph - 0.06 in Rain Rain
6:56 AM 41.0 °F 37.1 °F 39.2 °F 93% 29.69 in 5.0 mi SW 5.8 mph - N/A Rain Rain
6:58 AM 41.0 °F 35.8 °F 39.2 °F 93% 29.69 in 5.0 mi SW 8.1 mph - N/A Rain Rain
6:59 AM 41.0 °F 35.8 °F 39.2 °F 93% 29.69 in 5.0 mi SSW 8.1 mph - N/A Rain Rain
7:02 AM 41.0 °F 35.2 °F 39.2 °F 93% 29.70 in 5.0 mi SSW 9.2 mph - N/A Rain Rain
7:04 AM 41.0 °F 34.7 °F 39.2 °F 93% 29.70 in 5.0 mi SSW 10.4 mph - N/A Rain Rain
7:11 AM 41.0 °F 33.1 °F 39.2 °F 93% 29.69 in 5.0 mi South 15.0 mph - N/A   Overcast
7:18 AM 41.0 °F 32.5 °F 41.0 °F 100% 29.69 in 6.0 mi South 17.3 mph - N/A   Overcast
7:30 AM 41.0 °F 31.9 °F 41.0 °F 100% 29.70 in 6.0 mi South 19.6 mph - N/A   Overcast
7:55 AM 41.7 °F 33.7 °F 40.3 °F 95% 29.71 in 10.0 mi South 16.1 mph 24.2 mph 0.11 in Rain Light Rain
8:00 AM 41.0 °F 32.5 °F 41.0 °F 100% 29.71 in 10.0 mi South 17.3 mph 25.3 mph N/A   Mostly Cloudy
8:41 AM 42.8 °F 35.1 °F 41.0 °F 93% 29.72 in 10.0 mi South 16.1 mph - N/A Rain Light Rain
8:52 AM 42.8 °F 35.8 °F 41.0 °F 93% 29.73 in 10.0 mi South 13.8 mph - N/A   Partly Cloudy
8:55 AM 42.4 °F 35.3 °F 40.5 °F 93% 29.72 in 10.0 mi South 13.8 mph - 0.00 in   Partly Cloudy
9:55 AM 44.8 °F 37.4 °F 41.2 °F 87% 29.74 in 10.0 mi South 17.3 mph - N/A   Mostly Cloudy
10:55 AM 46.4 °F 40.1 °F 41.0 °F 81% 29.76 in 10.0 mi South 15.0 mph 20.7 mph N/A Rain Light Rain
11:01 AM 46.4 °F 40.7 °F 41.0 °F 81% 29.77 in 10.0 mi South 12.7 mph - N/A Rain Light Rain
11:16 AM 46.4 °F 41.1 °F 42.8 °F 87% 29.77 in 10.0 mi South 11.5 mph - N/A   Overcast
11:55 AM 46.9 °F - 42.4 °F 84% 29.78 in 10.0 mi South 10.4 mph - 0.01 in   Overcast
12:55 PM 48.9 °F - 42.6 °F 79% 29.76 in 10.0 mi SSE 10.4 mph - N/A   Overcast
1:55 PM 48.7 °F - 43.0 °F 80% 29.75 in 10.0 mi South 11.5 mph - N/A   Mostly Cloudy
1:58 PM 48.2 °F - 42.8 °F 82% 29.75 in 10.0 mi South 12.7 mph - N/A   Overcast
2:55 PM 47.8 °F - 43.2 °F 84% 29.73 in 10.0 mi SSE 9.2 mph - N/A   Overcast
3:19 PM 48.2 °F - 42.8 °F 82% 29.72 in 10.0 mi South 8.1 mph - N/A   Overcast
3:24 PM 46.4 °F 42.4 °F 42.8 °F 87% 29.72 in 10.0 mi South 8.1 mph - N/A Rain Light Rain
3:34 PM 46.4 °F 42.4 °F 42.8 °F 87% 29.70 in 9.0 mi SSE 8.1 mph - N/A Rain Light Rain
3:38 PM 46.4 °F 42.4 °F 42.8 °F 87% 29.70 in 9.0 mi SSE 8.1 mph - N/A Rain Light Rain
3:40 PM 46.4 °F 42.4 °F 42.8 °F 87% 29.70 in 9.0 mi SSE 8.1 mph - N/A Rain Light Rain
3:47 PM 46.4 °F 42.9 °F 42.8 °F 87% 29.71 in 10.0 mi South 6.9 mph - N/A   Overcast
3:53 PM 46.4 °F 42.9 °F 42.8 °F 87% 29.71 in 10.0 mi South 6.9 mph - N/A Rain Light Rain
3:55 PM 46.4 °F 43.5 °F 43.7 °F 90% 29.71 in 10.0 mi South 5.8 mph - 0.01 in Rain Light Rain
4:07 PM 46.4 °F 43.5 °F 42.8 °F 87% 29.70 in 10.0 mi South 5.8 mph - N/A   Mostly Cloudy
4:14 PM 44.6 °F 41.4 °F 42.8 °F 93% 29.70 in 10.0 mi South 5.8 mph - N/A   Mostly Cloudy
4:55 PM 46.6 °F - 43.2 °F 88% 29.68 in 10.0 mi South 5.8 mph - 0.00 in   Overcast
5:03 PM 46.4 °F 42.4 °F 42.8 °F 87% 29.68 in 10.0 mi South 8.1 mph - N/A Rain Light Rain
5:15 PM 46.4 °F 41.9 °F 42.8 °F 87% 29.68 in 10.0 mi South 9.2 mph - N/A   Mostly Cloudy
5:46 PM 48.2 °F - 42.8 °F 82% 29.67 in 10.0 mi SSE 15.0 mph - N/A Rain Light Rain
5:55 PM 47.3 °F - 43.5 °F 87% 29.67 in 10.0 mi SSE 13.8 mph - 0.00 in   Scattered Clouds
6:02 PM 46.4 °F 40.7 °F 42.8 °F 87% 29.67 in 10.0 mi SSE 12.7 mph - N/A Rain Light Rain
6:34 PM 46.4 °F 40.7 °F 44.6 °F 93% 29.67 in 10.0 mi South 12.7 mph - N/A   Overcast
6:55 PM 46.6 °F - 43.9 °F 90% 29.66 in 10.0 mi SSE 10.4 mph - 0.01 in Rain Light Rain
6:57 PM 46.4 °F 40.7 °F 44.6 °F 93% 29.65 in 10.0 mi SSE 12.7 mph - N/A   Mostly Cloudy
7:55 PM 46.0 °F 41.0 °F 42.4 °F 87% 29.63 in 10.0 mi SSE 10.4 mph - 0.00 in   Mostly Cloudy
8:07 PM 46.4 °F 41.9 °F 42.8 °F 87% 29.63 in 10.0 mi SSE 9.2 mph - N/A Rain Light Rain
8:16 PM 46.4 °F 40.1 °F 42.8 °F 87% 29.62 in 10.0 mi SSE 15.0 mph - N/A   Overcast
8:55 PM 47.1 °F - 41.5 °F 81% 29.61 in 10.0 mi SSE 16.1 mph - 0.00 in   Mostly Cloudy
9:42 PM 46.4 °F 39.8 °F 41.0 °F 81% 29.60 in 10.0 mi SSE 16.1 mph 21.9 mph N/A Rain Light Rain
9:54 PM 46.4 °F 41.1 °F 41.0 °F 81% 29.59 in 10.0 mi SSE 11.5 mph 23.0 mph N/A   Scattered Clouds
9:55 PM 46.9 °F - 41.2 °F 80% 29.59 in 10.0 mi SSE 13.8 mph 23.0 mph 0.00 in   Scattered Clouds
10:43 PM 46.4 °F 41.1 °F 41.0 °F 81% 29.59 in 10.0 mi SSE 11.5 mph - N/A Rain Light Rain
10:55 PM 47.1 °F - 42.1 °F 83% 29.58 in 10.0 mi SSE 12.7 mph - 0.00 in Rain Light Rain
11:30 PM 46.4 °F 41.5 °F 42.8 °F 87% 29.57 in 10.0 mi SSE 10.4 mph - N/A   Overcast
11:55 PM 47.7 °F - 42.6 °F 83% 29.56 in 10.0 mi SSE 10.4 mph - 0.01 in   Overcast